Terminal Aerodrome Forecast
Issued by NWS Corpus Christi, TX

Current Version | Previous Version | Text Only | Print | Product List | Glossary On
Versions: 1 2 3 4 5 6 7 8 9 10 11 12 13 14 15 16
000
FTUS44 KCRP 042329
TAFCRP
TAF
KCRP 042329Z 0500/0524 15016G22KT P6SM SCT040 BKN170
     FM050200 14010KT P6SM SCT018
     FM051400 16012KT P6SM SCT025 BKN250
     FM051800 14015G21KT P6SM SCT050=

USA.gov is the U.S. government's official web portal to all federal, state and local government web resources and services.